Time;durP1;ratioP1;P1;durP2;ratioP2;P2;SDS_P1;SDS_P2;PMS_P1;PMS_P2;Temp;Humidity;BMP_temperature;BMP_pressure;BME280_temperature;BME280_humidity;BME280_pressure;Samples;Min_cycle;Max_cycle;Signal;HPM_P1;HPM_P2
2022/11/01 00:00:01;;;;;;;;;1.50;0.00;;;;;19.50;65.77;-19728.81;4994883;28;46465;-76
2022/11/01 00:02:27;;;;;;;;;0.00;0.00;;;;;19.46;65.63;-19727.59;4995875;27;45861;-74
2022/11/01 00:04:52;;;;;;;;;0.00;0.00;;;;;19.27;65.51;-19722.78;4996040;27;45285;-74
2022/11/01 00:07:18;;;;;;;;;0.00;0.00;;;;;19.39;65.54;-19726.00;4996701;27;45377;-75
2022/11/01 00:09:44;;;;;;;;;0.00;0.00;;;;;19.18;64.74;-19720.38;4978762;28;46577;-76
2022/11/01 00:12:09;;;;;;;;;0.00;0.00;;;;;19.09;65.33;-19718.00;4995991;27;45482;-76
2022/11/01 00:14:35;;;;;;;;;1.00;1.00;;;;;19.28;64.70;-19722.94;4996245;27;45411;-75
2022/11/01 00:17:00;;;;;;;;;0.75;0.00;;;;;19.26;64.49;-19722.41;4978955;28;45489;-76
2022/11/01 00:19:25;;;;;;;;;0.00;0.00;;;;;19.19;64.78;-19720.78;4996047;27;45827;-76
2022/11/01 00:21:51;;;;;;;;;0.00;0.00;;;;;19.22;64.42;-19721.47;4977977;28;47103;-76
2022/11/01 00:24:16;;;;;;;;;0.75;0.75;;;;;19.22;64.89;-19721.31;4995770;27;45615;-76
2022/11/01 00:26:42;;;;;;;;;0.00;0.00;;;;;19.20;64.67;-19720.94;4996053;27;45901;-76
2022/11/01 00:29:08;;;;;;;;;0.00;0.00;;;;;19.16;64.73;-19720.00;4962235;28;45468;-76
2022/11/01 00:31:33;;;;;;;;;1.25;0.00;;;;;19.17;64.88;-19720.13;4995828;27;45424;-76
2022/11/01 00:34:02;;;;;;;;;0.00;0.00;;;;;19.12;64.53;-19718.91;4995695;27;45512;-76
2022/11/01 00:36:28;;;;;;;;;1.00;0.00;;;;;19.10;63.81;-19718.38;4995923;27;45547;-76
2022/11/01 00:38:53;;;;;;;;;0.00;0.00;;;;;19.08;63.83;-19717.84;4996031;27;45480;-76
2022/11/01 00:41:22;;;;;;;;;0.25;0.00;;;;;19.04;63.52;-19716.78;4995935;27;46052;-77
2022/11/01 00:43:48;;;;;;;;;1.25;0.00;;;;;19.03;63.92;-19716.50;4993716;27;45426;-78
2022/11/01 00:46:14;;;;;;;;;1.00;0.00;;;;;19.01;63.39;-19716.00;4995988;27;45330;-76
2022/11/01 00:48:39;;;;;;;;;0.00;0.00;;;;;18.86;63.13;-19712.09;4995589;27;46354;-76
2022/11/01 00:51:05;;;;;;;;;0.00;0.00;;;;;19.02;63.05;-19716.25;4995572;27;45417;-76
2022/11/01 00:53:30;;;;;;;;;0.00;0.00;;;;;18.65;63.47;-19706.50;4995717;27;45292;-76
2022/11/01 00:56:00;;;;;;;;;0.00;0.00;;;;;18.88;63.46;-19712.66;4996064;27;45342;-76
2022/11/01 00:58:25;;;;;;;;;1.75;0.00;;;;;18.92;62.82;-19713.59;4995736;27;45671;-75
2022/11/01 01:00:51;;;;;;;;;0.00;0.00;;;;;18.94;63.52;-19714.25;4995471;27;45561;-76
2022/11/01 01:03:16;;;;;;;;;0.00;0.00;;;;;18.98;62.96;-19715.19;5024281;27;45354;-76
2022/11/01 01:05:41;;;;;;;;;0.00;0.00;;;;;18.96;62.64;-19714.66;5032858;27;45355;-76
2022/11/01 01:08:07;;;;;;;;;0.00;0.00;;;;;18.87;62.63;-19712.25;4996102;27;45521;-76
2022/11/01 01:10:32;;;;;;;;;0.00;0.00;;;;;18.73;62.68;-19708.78;4995445;28;46089;-76
2022/11/01 01:12:57;;;;;;;;;0.00;0.00;;;;;18.87;62.70;-19712.38;4995316;27;45701;-75
2022/11/01 01:15:23;;;;;;;;;1.25;0.00;;;;;18.81;61.93;-19710.66;4993808;28;45467;-76
2022/11/01 01:17:48;;;;;;;;;0.00;0.00;;;;;18.66;62.36;-19706.91;4995296;27;45551;-76
2022/11/01 01:20:14;;;;;;;;;0.00;0.00;;;;;18.64;62.07;-19706.22;4995445;27;47127;-76
2022/11/01 01:22:40;;;;;;;;;0.00;0.00;;;;;18.65;61.81;-19706.63;4995255;27;45297;-76
2022/11/01 01:25:07;;;;;;;;;2.00;0.25;;;;;17.32;61.38;-19671.72;4995322;27;45455;-76
2022/11/01 01:27:33;;;;;;;;;0.00;0.00;;;;;18.58;62.06;-19704.75;4995480;27;45599;-76
2022/11/01 01:29:58;;;;;;;;;2.00;0.00;;;;;18.15;61.78;-19693.53;4995496;27;46236;-76
2022/11/01 01:32:24;;;;;;;;;0.00;0.00;;;;;18.29;61.22;-19697.16;4992013;28;46071;-76
2022/11/01 01:34:49;;;;;;;;;0.00;0.00;;;;;18.34;61.30;-19698.63;4974076;27;45491;-76
2022/11/01 01:37:16;;;;;;;;;0.00;0.00;;;;;18.31;61.35;-19697.81;4978172;28;45481;-76
2022/11/01 01:39:41;;;;;;;;;0.00;0.00;;;;;18.27;61.59;-19696.59;4995090;27;46112;-76
2022/11/01 01:42:28;;;;;;;;;0.00;0.00;;;;;18.19;61.63;-19694.47;4977396;28;45461;-76
2022/11/01 01:44:54;;;;;;;;;0.00;0.00;;;;;18.16;61.29;-19693.81;4980374;27;45373;-76
2022/11/01 01:47:31;;;;;;;;;0.00;0.00;;;;;18.10;61.21;-19692.34;4978022;28;45438;-76
2022/11/01 01:50:17;;;;;;;;;4.00;0.00;;;;;17.97;61.34;-19688.84;4994975;27;45400;-76
2022/11/01 01:52:43;;;;;;;;;0.00;0.00;;;;;17.97;61.37;-19688.84;4995070;27;45391;-75
2022/11/01 01:55:10;;;;;;;;;0.00;0.00;;;;;17.87;61.46;-19686.19;4995057;27;45452;-76
2022/11/01 01:57:38;;;;;;;;;0.33;0.00;;;;;17.85;61.35;-19685.66;4995089;27;45422;-76
2022/11/01 02:00:04;;;;;;;;;0.00;0.00;;;;;17.79;60.60;-19684.16;4994538;27;45365;-76
2022/11/01 02:02:31;;;;;;;;;0.00;0.00;;;;;17.71;61.01;-19682.16;4992914;28;45397;-76
2022/11/01 02:05:01;;;;;;;;;0.00;0.00;;;;;17.65;61.09;-19680.56;4992317;28;45467;-76
2022/11/01 02:07:27;;;;;;;;;0.00;0.00;;;;;17.54;59.94;-19677.63;4994925;27;45424;-76
2022/11/01 02:09:54;;;;;;;;;0.00;0.00;;;;;17.54;60.41;-19677.47;4993398;27;46226;-75
2022/11/01 02:12:25;;;;;;;;;0.00;0.00;;;;;17.51;59.87;-19676.81;4989294;27;45500;-77
2022/11/01 02:14:50;;;;;;;;;0.00;0.00;;;;;17.47;60.37;-19675.88;4994890;27;45470;-74
2022/11/01 02:17:37;;;;;;;;;1.00;0.00;;;;;17.46;60.32;-19675.59;4999724;27;45512;-74
2022/11/01 02:20:20;;;;;;;;;0.00;0.00;;;;;17.42;60.44;-19674.41;4991367;27;45572;-74
2022/11/01 02:23:06;;;;;;;;;0.00;0.00;;;;;17.44;60.60;-19674.94;4990861;27;45612;-74
2022/11/01 02:26:03;;;;;;;;;0.00;0.00;;;;;17.40;60.52;-19674.00;4996604;27;45562;-75
2022/11/01 02:29:08;;;;;;;;;1.00;0.00;;;;;17.32;60.41;-19671.84;4994404;27;45845;-74
2022/11/01 02:31:55;;;;;;;;;0.00;0.00;;;;;17.26;60.52;-19670.25;4994292;27;45436;-74
2022/11/01 02:34:20;;;;;;;;;0.00;0.00;;;;;17.25;60.96;-19669.97;4990502;27;45450;-76
2022/11/01 02:36:51;;;;;;;;;0.00;0.00;;;;;17.20;61.13;-19668.78;4992582;27;45544;-74
2022/11/01 02:39:21;;;;;;;;;1.00;0.00;;;;;16.98;61.30;-19663.03;4995056;27;45321;-74
2022/11/01 02:42:06;;;;;;;;;0.00;0.00;;;;;17.04;61.25;-19664.50;4992879;27;46359;-74
2022/11/01 02:44:39;;;;;;;;;0.00;0.00;;;;;16.94;60.85;-19661.81;4993795;27;45374;-75
2022/11/01 02:47:05;;;;;;;;;0.00;0.00;;;;;17.02;61.13;-19664.09;4994578;27;45444;-76
2022/11/01 02:49:53;;;;;;;;;1.33;0.67;;;;;16.97;60.99;-19662.75;4993163;27;45485;-74
2022/11/01 02:52:24;;;;;;;;;0.00;0.00;;;;;16.87;61.18;-19660.09;4994039;27;47519;-75
2022/11/01 02:54:57;;;;;;;;;0.00;0.00;;;;;16.97;61.21;-19662.75;4994024;27;45361;-74
2022/11/01 02:57:35;;;;;;;;;0.00;0.00;;;;;16.94;60.98;-19661.94;4993942;27;45442;-74
2022/11/01 03:00:17;;;;;;;;;3.67;0.00;;;;;16.85;60.32;-19659.69;4983430;28;45232;-74
2022/11/01 03:02:43;;;;;;;;;0.00;0.00;;;;;16.90;60.34;-19660.88;4994056;27;46282;-75
2022/11/01 03:05:21;;;;;;;;;0.00;0.00;;;;;16.91;60.30;-19661.16;4992901;27;45363;-74
2022/11/01 03:07:54;;;;;;;;;2.00;0.00;;;;;16.92;60.39;-19661.41;4986213;27;45430;-74
2022/11/01 03:10:22;;;;;;;;;0.00;0.00;;;;;16.93;59.92;-19661.56;4973634;28;45417;-75
2022/11/01 03:13:28;;;;;;;;;0.00;0.00;;;;;16.87;60.32;-19660.22;4987135;27;45360;-74
2022/11/01 03:16:06;;;;;;;;;1.00;0.00;;;;;16.90;60.33;-19660.88;5057016;27;45326;-74
2022/11/01 03:18:35;;;;;;;;;0.00;0.00;;;;;16.88;60.52;-19660.34;4981588;28;45450;-75
2022/11/01 03:21:14;;;;;;;;;0.00;0.00;;;;;16.87;60.23;-19660.22;4994126;28;45298;-74
2022/11/01 03:23:48;;;;;;;;;1.00;0.00;;;;;16.88;60.54;-19660.34;4993829;27;45485;-74
2022/11/01 03:26:26;;;;;;;;;0.00;0.00;;;;;16.89;60.49;-19660.63;4981348;27;45325;-74
2022/11/01 03:28:57;;;;;;;;;0.00;0.00;;;;;16.82;60.84;-19658.75;4997050;27;45392;-74
2022/11/01 03:31:31;;;;;;;;;0.00;0.00;;;;;16.82;60.86;-19658.88;4996896;27;45321;-74
2022/11/01 03:34:01;;;;;;;;;0.67;0.67;;;;;16.83;60.69;-19659.16;4979687;27;45466;-74
2022/11/01 03:36:34;;;;;;;;;1.00;0.00;;;;;16.82;60.36;-19658.88;4978975;28;45341;-75
2022/11/01 03:39:12;;;;;;;;;0.00;0.00;;;;;16.80;60.71;-19658.34;4996432;27;45453;-74
2022/11/01 03:41:42;;;;;;;;;2.33;0.00;;;;;16.80;60.74;-19658.34;4995377;27;45519;-74
2022/11/01 03:44:11;;;;;;;;;1.00;0.00;;;;;16.74;60.89;-19656.72;4996560;27;46009;-74
2022/11/01 03:46:37;;;;;;;;;0.00;0.00;;;;;16.51;61.01;-19650.56;4996565;27;45374;-74
2022/11/01 03:49:03;;;;;;;;;0.33;0.33;;;;;16.75;61.13;-19657.00;4996669;27;45637;-74
2022/11/01 03:51:28;;;;;;;;;0.00;0.00;;;;;16.72;60.97;-19656.06;4996815;27;45376;-74
2022/11/01 03:53:54;;;;;;;;;1.00;1.00;;;;;16.65;60.46;-19654.31;4996674;27;45499;-75
2022/11/01 03:56:20;;;;;;;;;1.33;0.00;;;;;16.65;60.86;-19654.44;4996453;27;45482;-75
2022/11/01 03:58:45;;;;;;;;;0.00;0.00;;;;;16.65;60.73;-19654.44;4996111;27;45419;-74
2022/11/01 04:01:13;;;;;;;;;0.00;0.00;;;;;16.62;60.91;-19653.66;4997024;27;45397;-74
2022/11/01 04:03:39;;;;;;;;;4.00;0.00;;;;;16.61;60.97;-19653.38;4996027;27;45370;-75
2022/11/01 04:06:05;;;;;;;;;1.00;0.00;;;;;16.61;60.97;-19653.25;4996238;27;45365;-75
2022/11/01 04:08:31;;;;;;;;;1.33;0.00;;;;;16.39;61.27;-19647.63;4996209;27;45319;-75
2022/11/01 04:10:57;;;;;;;;;0.67;0.00;;;;;16.56;60.91;-19651.91;4996507;27;45393;-75
2022/11/01 04:13:23;;;;;;;;;0.67;0.00;;;;;16.23;61.22;-19643.47;4996159;27;46012;-75
2022/11/01 04:21:23;;;;;;;;;2.00;0.00;;;;;16.31;61.07;-19645.47;4996175;27;45475;-74
2022/11/01 04:23:49;;;;;;;;;1.00;1.00;;;;;16.46;61.10;-19649.38;4975144;28;46200;-75
2022/11/01 04:26:18;;;;;;;;;0.00;0.00;;;;;16.41;61.14;-19648.16;4992389;27;45400;-75
2022/11/01 04:28:55;;;;;;;;;0.00;0.00;;;;;16.44;60.93;-19648.97;4996203;27;45440;-74
2022/11/01 04:31:33;;;;;;;;;3.33;0.00;;;;;16.43;61.20;-19648.56;4996409;27;45450;-74
2022/11/01 04:34:00;;;;;;;;;3.33;0.00;;;;;16.42;60.78;-19648.28;4996061;27;45325;-75
2022/11/01 04:36:26;;;;;;;;;0.33;0.33;;;;;16.09;60.70;-19639.59;4995909;27;45287;-75
2022/11/01 04:38:57;;;;;;;;;0.00;0.00;;;;;16.24;60.69;-19643.59;4994920;27;45412;-75
2022/11/01 04:41:24;;;;;;;;;0.00;0.00;;;;;16.41;60.22;-19648.03;4995069;27;45250;-75
2022/11/01 04:43:53;;;;;;;;;1.67;1.00;;;;;16.20;60.82;-19642.66;4995403;27;46560;-75
2022/11/01 04:46:19;;;;;;;;;0.00;0.00;;;;;16.21;60.22;-19642.78;4996064;27;45522;-75
2022/11/01 04:48:45;;;;;;;;;0.00;0.00;;;;;16.30;60.83;-19645.06;4995633;27;45420;-75
2022/11/01 04:51:11;;;;;;;;;1.67;1.00;;;;;16.30;60.97;-19645.22;4995094;27;45591;-75
2022/11/01 04:53:36;;;;;;;;;1.67;0.00;;;;;16.31;60.56;-19645.47;4993551;27;47055;-75
2022/11/01 04:56:03;;;;;;;;;0.00;0.00;;;;;16.31;60.70;-19645.34;4996025;27;45360;-75
2022/11/01 04:58:29;;;;;;;;;0.33;0.33;;;;;16.28;60.72;-19644.66;4978199;27;45370;-75
2022/11/01 05:00:55;;;;;;;;;3.00;0.00;;;;;16.10;60.95;-19639.97;4987036;28;45603;-74
2022/11/01 05:03:20;;;;;;;;;0.67;0.67;;;;;16.24;61.16;-19643.59;4988764;27;45866;-74
2022/11/01 05:05:47;;;;;;;;;3.67;2.00;;;;;16.10;61.39;-19639.84;4977873;28;45427;-74
2022/11/01 05:08:13;;;;;;;;;0.00;0.00;;;;;16.10;60.88;-19639.97;4978103;27;45426;-75
2022/11/01 05:10:42;;;;;;;;;1.67;0.00;;;;;16.05;61.37;-19638.63;4996197;27;45678;-74
2022/11/01 05:13:09;;;;;;;;;1.00;0.00;;;;;16.25;61.38;-19643.88;4993681;27;47756;-75
2022/11/01 05:15:35;;;;;;;;;0.67;0.00;;;;;16.23;61.33;-19643.47;4995527;27;45491;-74
2022/11/01 05:18:01;;;;;;;;;1.00;1.00;;;;;16.23;61.67;-19643.34;4995391;27;45357;-74
2022/11/01 05:20:28;;;;;;;;;1.00;0.00;;;;;16.00;61.29;-19637.31;4995988;28;45507;-74
2022/11/01 05:23:01;;;;;;;;;0.00;0.00;;;;;16.24;61.32;-19643.72;4995262;27;45409;-75
2022/11/01 05:25:28;;;;;;;;;1.00;1.00;;;;;16.23;61.49;-19643.47;4995232;27;45327;-74
2022/11/01 05:28:02;;;;;;;;;0.00;0.00;;;;;16.19;61.54;-19642.25;4995247;27;45378;-75
2022/11/01 05:30:27;;;;;;;;;1.67;0.00;;;;;16.01;61.60;-19637.72;4995523;27;45555;-74
2022/11/01 05:32:59;;;;;;;;;3.00;0.67;;;;;16.14;61.96;-19641.06;4995056;27;45938;-75
2022/11/01 05:35:25;;;;;;;;;1.67;0.00;;;;;16.13;62.01;-19640.78;4995390;28;45398;-74
2022/11/01 05:37:51;;;;;;;;;2.00;0.33;;;;;16.13;62.15;-19640.78;4994694;27;45636;-75
2022/11/01 05:40:16;;;;;;;;;1.33;0.00;;;;;15.83;62.04;-19633.00;4978007;28;45460;-74
2022/11/01 05:42:42;;;;;;;;;3.00;1.00;;;;;16.10;62.38;-19639.97;4994913;27;45967;-75
2022/11/01 05:45:08;;;;;;;;;1.00;1.00;;;;;16.05;62.67;-19638.63;4995131;27;45505;-75
2022/11/01 05:47:34;;;;;;;;;3.67;0.00;;;;;15.86;62.86;-19633.69;4995095;27;45473;-75
2022/11/01 05:50:00;;;;;;;;;0.67;0.00;;;;;16.00;62.54;-19637.31;4986148;28;45359;-74
2022/11/01 05:52:25;;;;;;;;;0.00;0.00;;;;;15.76;62.73;-19631.13;4989443;28;45947;-75
2022/11/01 05:54:51;;;;;;;;;0.00;0.00;;;;;15.83;62.74;-19632.88;4987656;27;45325;-74
2022/11/01 05:57:17;;;;;;;;;0.00;0.00;;;;;15.74;62.97;-19630.59;4995049;27;45506;-75
2022/11/01 05:59:42;;;;;;;;;2.00;0.00;;;;;15.87;62.78;-19633.94;4995201;27;45413;-74
2022/11/01 06:02:07;;;;;;;;;1.00;1.00;;;;;15.89;62.94;-19634.34;4994863;27;46309;-74
2022/11/01 06:04:33;;;;;;;;;0.00;0.00;;;;;15.90;63.35;-19634.63;4993551;27;45510;-74
2022/11/01 06:06:58;;;;;;;;;0.00;0.00;;;;;15.85;63.25;-19633.41;4993532;27;45597;-74
2022/11/01 06:09:23;;;;;;;;;3.00;0.67;;;;;15.88;63.33;-19634.09;4995565;27;45236;-74
2022/11/01 06:11:49;;;;;;;;;0.00;0.00;;;;;15.87;63.40;-19633.94;4994643;27;46842;-74
2022/11/01 06:14:15;;;;;;;;;2.00;1.00;;;;;15.83;63.39;-19633.00;4994941;27;45384;-75
2022/11/01 06:16:40;;;;;;;;;0.00;0.00;;;;;15.80;63.66;-19632.22;4990223;28;45362;-74
2022/11/01 06:19:05;;;;;;;;;0.00;0.00;;;;;15.85;63.40;-19633.28;4995220;27;45412;-74
2022/11/01 06:21:31;;;;;;;;;1.67;0.00;;;;;15.69;63.36;-19629.13;4994245;27;46614;-75
2022/11/01 06:23:56;;;;;;;;;0.67;0.00;;;;;15.72;63.38;-19629.94;4994789;27;45433;-75
2022/11/01 06:26:21;;;;;;;;;0.00;0.00;;;;;15.82;63.44;-19632.59;4993611;27;45559;-76
2022/11/01 06:28:47;;;;;;;;;0.00;0.00;;;;;15.79;63.66;-19631.81;4993322;27;45439;-75
2022/11/01 06:31:12;;;;;;;;;2.67;0.00;;;;;15.78;63.38;-19631.66;4994482;27;46989;-75
2022/11/01 06:33:38;;;;;;;;;6.67;0.67;;;;;15.80;63.58;-19632.22;4994373;27;45534;-75
2022/11/01 06:36:03;;;;;;;;;2.00;0.00;;;;;15.82;63.25;-19632.75;4991262;27;45468;-74
2022/11/01 06:38:29;;;;;;;;;1.00;1.00;;;;;15.83;63.60;-19633.00;4987091;27;45437;-75
2022/11/01 06:40:55;;;;;;;;;0.00;0.00;;;;;15.85;63.56;-19633.28;4975743;28;48240;-74
2022/11/01 06:43:21;;;;;;;;;1.00;0.00;;;;;15.83;63.40;-19633.00;4994553;27;45552;-74
2022/11/01 06:45:46;;;;;;;;;0.00;0.00;;;;;15.87;63.34;-19633.81;4994215;27;45531;-74
2022/11/01 06:48:11;;;;;;;;;0.00;0.00;;;;;15.83;63.03;-19633.00;4984012;28;45362;-75
2022/11/01 06:50:37;;;;;;;;;0.00;0.00;;;;;15.75;63.80;-19630.88;4993791;27;45794;-74
2022/11/01 06:53:02;;;;;;;;;0.00;0.00;;;;;15.81;63.43;-19632.34;4994293;27;45597;-74
2022/11/01 06:55:28;;;;;;;;;8.00;1.00;;;;;15.78;63.58;-19631.66;4994191;27;45369;-75
2022/11/01 06:57:55;;;;;;;;;0.00;0.00;;;;;15.77;63.41;-19631.41;4994985;28;45465;-74
2022/11/01 07:00:20;;;;;;;;;0.33;0.33;;;;;15.81;63.34;-19632.47;4994343;27;46965;-74
2022/11/01 07:02:46;;;;;;;;;0.00;0.00;;;;;15.81;63.28;-19632.34;4998933;27;45906;-74
2022/11/01 07:05:11;;;;;;;;;0.33;0.00;;;;;15.54;63.64;-19625.34;4981842;27;45494;-74
2022/11/01 07:07:37;;;;;;;;;3.33;1.00;;;;;15.73;63.64;-19630.34;5001019;27;45472;-74
2022/11/01 07:10:02;;;;;;;;;0.00;0.00;;;;;15.47;63.66;-19623.34;5000887;27;45349;-75
2022/11/01 07:12:28;;;;;;;;;0.00;0.00;;;;;15.07;63.62;-19612.88;5000565;27;45477;-75
2022/11/01 07:14:53;;;;;;;;;1.67;0.33;;;;;15.71;63.86;-19629.66;4995412;27;45507;-75
2022/11/01 07:17:18;;;;;;;;;1.67;0.00;;;;;15.59;64.07;-19626.56;4989679;28;45392;-74
2022/11/01 07:19:44;;;;;;;;;2.67;0.00;;;;;15.67;63.90;-19628.72;4999780;27;45669;-74
2022/11/01 07:22:09;;;;;;;;;1.00;0.67;;;;;15.68;63.47;-19628.84;4982617;28;45422;-74
2022/11/01 07:24:35;;;;;;;;;0.00;0.00;;;;;15.51;64.00;-19624.44;5046508;27;45816;-75
2022/11/01 07:27:00;;;;;;;;;1.33;0.00;;;;;15.62;64.25;-19627.50;5000937;27;45298;-74
2022/11/01 07:29:25;;;;;;;;;0.00;0.00;;;;;15.77;63.87;-19631.41;5000459;27;45359;-75
2022/11/01 07:31:51;;;;;;;;;2.00;1.00;;;;;15.77;64.12;-19631.41;4999955;27;48064;-74
2022/11/01 07:34:16;;;;;;;;;0.33;0.33;;;;;15.73;64.04;-19630.19;5000165;27;45377;-75
2022/11/01 07:36:42;;;;;;;;;0.33;0.00;;;;;15.87;63.97;-19633.94;4991820;27;45392;-75
2022/11/01 07:39:07;;;;;;;;;0.00;0.00;;;;;15.92;63.67;-19635.16;4996657;27;46018;-74
2022/11/01 07:41:32;;;;;;;;;0.00;0.00;;;;;15.93;63.99;-19635.56;4998540;27;45336;-75
2022/11/01 07:43:58;;;;;;;;;0.67;0.00;;;;;15.96;63.78;-19636.22;5000260;27;45400;-75
2022/11/01 07:46:23;;;;;;;;;1.00;0.00;;;;;15.88;64.04;-19634.09;4966476;28;45476;-75
2022/11/01 07:48:50;;;;;;;;;0.00;0.00;;;;;16.01;63.66;-19637.56;4965061;27;48626;-74
2022/11/01 07:51:16;;;;;;;;;3.00;1.00;;;;;16.01;63.75;-19637.72;4982329;28;46367;-74
2022/11/01 07:53:41;;;;;;;;;0.00;0.00;;;;;16.02;63.88;-19637.84;4999613;27;45651;-75
2022/11/01 07:56:08;;;;;;;;;0.00;0.00;;;;;16.04;63.58;-19638.50;5000273;27;45500;-74
2022/11/01 07:58:34;;;;;;;;;3.00;0.50;;;;;15.93;63.59;-19635.44;4999945;27;45446;-74
2022/11/01 08:01:00;;;;;;;;;3.00;1.00;;;;;16.07;63.59;-19639.03;4999926;27;45466;-75
2022/11/01 08:03:25;;;;;;;;;2.00;0.00;;;;;16.10;63.48;-19639.97;4999180;27;45630;-75
2022/11/01 08:05:51;;;;;;;;;1.00;0.00;;;;;16.18;63.52;-19642.00;4999711;27;45520;-75
2022/11/01 08:08:17;;;;;;;;;1.67;1.00;;;;;16.21;63.76;-19642.78;4999514;27;45330;-76
2022/11/01 08:10:42;;;;;;;;;1.00;0.00;;;;;16.24;63.46;-19643.59;4998536;27;45737;-76
2022/11/01 08:13:20;;;;;;;;;0.00;0.00;;;;;16.29;63.51;-19644.94;4984702;27;45497;-76
2022/11/01 08:15:46;;;;;;;;;1.00;0.00;;;;;16.33;63.03;-19646.00;4996667;27;45384;-76
2022/11/01 08:18:12;;;;;;;;;2.00;1.00;;;;;16.31;63.22;-19645.34;4995869;27;45751;-75
2022/11/01 08:20:39;;;;;;;;;1.67;0.00;;;;;16.26;63.07;-19644.13;4996123;27;45567;-76
2022/11/01 08:23:05;;;;;;;;;0.33;0.33;;;;;16.41;63.07;-19648.16;4996216;27;45480;-76
2022/11/01 08:25:31;;;;;;;;;3.00;0.00;;;;;16.47;62.90;-19649.63;4978639;28;45656;-75
2022/11/01 08:28:22;;;;;;;;;1.00;1.00;;;;;16.51;62.60;-19650.56;4975132;28;46174;-76
2022/11/01 08:30:49;;;;;;;;;2.00;0.67;;;;;16.56;62.30;-19652.03;4971520;27;45365;-76
2022/11/01 08:33:15;;;;;;;;;0.67;0.67;;;;;16.57;62.32;-19652.31;4996108;27;45358;-76
2022/11/01 08:35:40;;;;;;;;;2.00;0.00;;;;;16.61;62.33;-19653.38;4996161;27;45384;-76
2022/11/01 08:38:05;;;;;;;;;0.00;0.00;;;;;16.33;62.36;-19646.00;4988777;27;45315;-75
2022/11/01 08:40:32;;;;;;;;;3.00;0.00;;;;;16.61;62.30;-19653.38;4991070;27;45388;-76
2022/11/01 08:42:58;;;;;;;;;1.00;0.00;;;;;16.56;61.99;-19652.03;4995948;27;45451;-76
2022/11/01 08:45:23;;;;;;;;;2.00;2.00;;;;;16.81;61.98;-19658.59;4996076;27;45408;-76
2022/11/01 08:47:49;;;;;;;;;2.00;0.00;;;;;16.80;62.30;-19658.34;4995464;27;46991;-76
2022/11/01 08:50:16;;;;;;;;;0.33;0.00;;;;;16.88;61.79;-19660.34;4993890;27;46162;-76
2022/11/01 08:52:42;;;;;;;;;0.00;0.00;;;;;16.78;61.59;-19657.66;4995971;27;45950;-76
2022/11/01 08:55:09;;;;;;;;;1.33;1.00;;;;;16.98;61.43;-19663.03;4988534;27;45625;-76
2022/11/01 08:57:35;;;;;;;;;0.00;0.00;;;;;17.03;61.97;-19664.38;4995741;27;45483;-75
2022/11/01 09:00:01;;;;;;;;;2.00;0.00;;;;;17.09;61.32;-19665.84;4995513;27;45757;-76
2022/11/01 09:02:26;;;;;;;;;0.00;0.00;;;;;17.12;61.18;-19666.63;4995951;27;45438;-76
2022/11/01 09:04:52;;;;;;;;;0.33;0.00;;;;;17.15;61.02;-19667.31;4995741;27;45564;-76
2022/11/01 09:07:17;;;;;;;;;0.00;0.00;;;;;17.24;60.55;-19669.72;4995666;27;45457;-76
2022/11/01 09:09:43;;;;;;;;;0.00;0.00;;;;;17.29;60.64;-19671.06;4995303;27;45441;-76
2022/11/01 09:12:08;;;;;;;;;0.00;0.00;;;;;17.12;60.39;-19666.50;4995727;27;45946;-75
2022/11/01 09:14:34;;;;;;;;;2.00;0.67;;;;;17.33;60.31;-19672.13;4975781;27;45459;-76
2022/11/01 09:16:59;;;;;;;;;5.00;1.00;;;;;17.30;60.38;-19671.31;4995500;27;47215;-75
2022/11/01 09:19:24;;;;;;;;;1.33;1.00;;;;;17.38;60.36;-19673.34;4995628;27;45435;-76
2022/11/01 09:21:50;;;;;;;;;0.33;0.00;;;;;17.36;59.95;-19672.78;4995443;27;45489;-76
2022/11/01 09:24:16;;;;;;;;;1.00;1.00;;;;;17.43;59.89;-19674.66;4974991;28;45366;-76
2022/11/01 09:26:42;;;;;;;;;0.00;0.00;;;;;17.56;60.04;-19678.16;4977815;28;45539;-76
2022/11/01 09:29:09;;;;;;;;;0.00;0.00;;;;;17.63;60.07;-19680.03;4965053;27;45448;-77
2022/11/01 09:31:35;;;;;;;;;0.33;0.33;;;;;17.68;59.39;-19681.22;4972828;28;45362;-76
2022/11/01 09:34:00;;;;;;;;;0.00;0.00;;;;;17.48;59.38;-19676.13;4972451;27;45448;-76
2022/11/01 09:36:27;;;;;;;;;0.33;0.00;;;;;17.80;59.74;-19684.44;4995396;28;45368;-76
2022/11/01 09:38:54;;;;;;;;;0.00;0.00;;;;;17.90;59.58;-19687.13;4977293;27;45298;-76
2022/11/01 09:41:28;;;;;;;;;1.33;0.00;;;;;18.01;59.46;-19689.94;4993984;27;45322;-76
2022/11/01 09:43:56;;;;;;;;;3.00;0.00;;;;;18.03;58.77;-19690.47;4994927;27;45415;-76
2022/11/01 09:46:27;;;;;;;;;0.00;0.00;;;;;18.25;58.89;-19696.06;4995026;27;47409;-76
2022/11/01 09:48:55;;;;;;;;;0.00;0.00;;;;;18.28;58.63;-19696.88;4989328;27;45495;-76
2022/11/01 09:51:23;;;;;;;;;2.00;0.00;;;;;18.44;58.46;-19701.16;4977127;28;45366;-77
2022/11/01 09:53:53;;;;;;;;;0.00;0.00;;;;;18.29;57.81;-19697.16;4995282;27;45424;-76
2022/11/01 09:56:33;;;;;;;;;1.33;1.00;;;;;18.37;57.70;-19699.16;4994963;27;46002;-76
2022/11/01 09:59:26;;;;;;;;;2.00;0.00;;;;;18.69;57.45;-19707.69;4994593;27;45342;-76
2022/11/01 10:02:20;;;;;;;;;0.67;0.67;;;;;18.84;57.81;-19711.44;4977329;27;45520;-76
2022/11/01 10:05:07;;;;;;;;;0.00;0.00;;;;;18.96;57.28;-19714.66;4995277;27;45542;-76
2022/11/01 10:08:00;;;;;;;;;1.00;0.00;;;;;19.03;56.65;-19716.38;4995011;27;45628;-76
2022/11/01 10:10:26;;;;;;;;;0.33;0.33;;;;;19.14;56.84;-19719.47;4994825;27;45311;-76
2022/11/01 10:13:10;;;;;;;;;1.33;0.00;;;;;19.25;56.55;-19722.13;4994971;27;45819;-76
2022/11/01 10:15:39;;;;;;;;;1.67;1.00;;;;;19.35;56.01;-19724.78;4995245;27;45366;-76
2022/11/01 10:18:27;;;;;;;;;0.00;0.00;;;;;19.47;56.01;-19727.88;4977167;28;48654;-76
2022/11/01 10:20:55;;;;;;;;;1.00;1.00;;;;;19.38;55.50;-19725.59;4994621;27;45369;-76
2022/11/01 10:23:32;;;;;;;;;0.00;0.00;;;;;19.41;55.48;-19726.41;4994868;27;45308;-76
2022/11/01 10:25:57;;;;;;;;;0.75;0.00;;;;;19.64;55.29;-19732.28;4994870;27;45369;-76
2022/11/01 10:29:07;;;;;;;;;0.00;0.00;;;;;19.69;55.73;-19733.75;4994431;27;46144;-76
2022/11/01 10:31:42;;;;;;;;;0.00;0.00;;;;;19.72;55.02;-19734.53;4996371;27;45460;-76
2022/11/01 10:34:16;;;;;;;;;0.00;0.00;;;;;19.73;55.25;-19734.69;4976736;27;45496;-76
2022/11/01 10:36:45;;;;;;;;;0.75;0.00;;;;;19.69;54.43;-19733.75;4976380;28;45431;-76
2022/11/01 10:39:40;;;;;;;;;2.00;1.00;;;;;19.64;55.21;-19732.41;4976642;27;46915;-76
2022/11/01 10:42:14;;;;;;;;;2.50;0.00;;;;;19.68;54.44;-19733.47;4993288;27;45408;-76
2022/11/01 10:44:45;;;;;;;;;0.00;0.00;;;;;19.65;54.88;-19732.53;4960487;28;45498;-76
2022/11/01 10:47:17;;;;;;;;;0.00;0.00;;;;;19.67;54.56;-19733.19;5028524;27;45423;-75
2022/11/01 10:50:13;;;;;;;;;0.00;0.00;;;;;19.71;54.48;-19734.13;4984807;27;46098;-76
2022/11/01 10:53:01;;;;;;;;;0.00;0.00;;;;;19.71;54.81;-19734.28;4982348;27;45347;-77
2022/11/01 10:55:36;;;;;;;;;0.00;0.00;;;;;19.71;54.29;-19734.13;4993843;27;45405;-77
2022/11/01 10:58:10;;;;;;;;;0.50;0.50;;;;;19.45;54.56;-19727.34;4994626;27;45416;-76
2022/11/01 11:00:39;;;;;;;;;0.00;0.00;;;;;19.70;54.08;-19733.88;4994134;27;45483;-76
2022/11/01 11:03:22;;;;;;;;;0.25;0.00;;;;;19.65;53.86;-19732.53;4994103;27;45392;-76
2022/11/01 11:05:50;;;;;;;;;1.50;0.00;;;;;19.68;53.82;-19733.34;4983740;27;45284;-77
2022/11/01 11:08:17;;;;;;;;;0.00;0.00;;;;;19.66;54.08;-19732.81;4994301;27;45534;-75
2022/11/01 11:10:44;;;;;;;;;0.25;0.00;;;;;19.36;54.02;-19725.06;4993850;27;45542;-75
2022/11/01 11:13:11;;;;;;;;;1.00;0.00;;;;;19.71;53.41;-19734.28;4994010;27;45282;-75
2022/11/01 11:15:45;;;;;;;;;0.50;0.00;;;;;19.75;53.73;-19735.34;4986518;28;45356;-75
2022/11/01 11:18:37;;;;;;;;;1.50;0.75;;;;;19.82;53.52;-19737.06;4994142;27;45382;-75
2022/11/01 11:21:12;;;;;;;;;0.00;0.00;;;;;20.60;52.59;-19757.34;4992729;27;46705;-75
2022/11/01 11:23:44;;;;;;;;;2.50;0.00;;;;;20.74;51.48;-19760.94;4993708;27;45420;-76
2022/11/01 11:26:17;;;;;;;;;0.00;0.00;;;;;20.93;51.21;-19765.88;4988813;28;45404;-75
2022/11/01 11:28:51;;;;;;;;;1.75;0.00;;;;;20.71;52.08;-19760.28;4994162;27;45410;-75
2022/11/01 11:31:32;;;;;;;;;1.50;0.00;;;;;20.47;51.96;-19754.00;4993552;27;45964;-74
2022/11/01 11:34:23;;;;;;;;;0.00;0.00;;;;;20.59;52.20;-19757.22;4993580;27;45503;-75
2022/11/01 11:36:50;;;;;;;;;0.00;0.00;;;;;20.74;51.19;-19760.94;4993998;28;45313;-77
2022/11/01 11:39:27;;;;;;;;;1.00;0.00;;;;;20.85;51.38;-19764.00;4987821;27;45393;-75